sensor_id;sensor_type;location;lat;lon;timestamp;P1;durP1;ratioP1;P2;durP2;ratioP2
12556;SDS011;6344;49.932;8.308;2023-11-19T00:00:42;5.83;;;5.17;;
12556;SDS011;6344;49.932;8.308;2023-11-19T00:03:08;6.30;;;4.90;;
12556;SDS011;6344;49.932;8.308;2023-11-19T00:05:36;5.23;;;4.83;;
12556;SDS011;6344;49.932;8.308;2023-11-19T00:08:02;6.23;;;5.70;;
12556;SDS011;6344;49.932;8.308;2023-11-19T00:10:29;5.57;;;5.17;;
12556;SDS011;6344;49.932;8.308;2023-11-19T00:12:56;6.03;;;5.30;;
12556;SDS011;6344;49.932;8.308;2023-11-19T00:15:24;5.53;;;4.97;;
12556;SDS011;6344;49.932;8.308;2023-11-19T00:17:51;6.17;;;5.57;;
12556;SDS011;6344;49.932;8.308;2023-11-19T00:20:18;5.53;;;4.60;;
12556;SDS011;6344;49.932;8.308;2023-11-19T00:22:47;5.43;;;5.03;;
12556;SDS011;6344;49.932;8.308;2023-11-19T00:25:16;5.20;;;4.90;;
12556;SDS011;6344;49.932;8.308;2023-11-19T00:27:43;5.60;;;5.13;;
12556;SDS011;6344;49.932;8.308;2023-11-19T00:30:10;5.20;;;4.80;;
12556;SDS011;6344;49.932;8.308;2023-11-19T00:32:39;5.23;;;4.83;;
12556;SDS011;6344;49.932;8.308;2023-11-19T00:35:07;5.23;;;4.83;;
12556;SDS011;6344;49.932;8.308;2023-11-19T00:37:35;4.70;;;4.40;;
12556;SDS011;6344;49.932;8.308;2023-11-19T00:40:02;4.77;;;4.37;;
12556;SDS011;6344;49.932;8.308;2023-11-19T00:42:30;4.93;;;4.63;;
12556;SDS011;6344;49.932;8.308;2023-11-19T00:44:57;5.70;;;5.10;;
12556;SDS011;6344;49.932;8.308;2023-11-19T00:47:25;4.90;;;4.50;;
12556;SDS011;6344;49.932;8.308;2023-11-19T00:49:53;4.63;;;4.33;;
12556;SDS011;6344;49.932;8.308;2023-11-19T00:52:20;4.90;;;4.60;;
12556;SDS011;6344;49.932;8.308;2023-11-19T00:54:47;5.27;;;4.83;;
12556;SDS011;6344;49.932;8.308;2023-11-19T00:57:13;6.23;;;5.23;;
12556;SDS011;6344;49.932;8.308;2023-11-19T00:59:41;5.70;;;5.27;;
12556;SDS011;6344;49.932;8.308;2023-11-19T01:02:08;7.20;;;6.60;;
12556;SDS011;6344;49.932;8.308;2023-11-19T01:04:34;7.50;;;6.80;;
12556;SDS011;6344;49.932;8.308;2023-11-19T01:07:02;8.33;;;7.63;;
12556;SDS011;6344;49.932;8.308;2023-11-19T01:09:30;7.33;;;6.73;;
12556;SDS011;6344;49.932;8.308;2023-11-19T01:11:59;5.53;;;5.13;;
12556;SDS011;6344;49.932;8.308;2023-11-19T01:14:26;5.47;;;5.00;;
12556;SDS011;6344;49.932;8.308;2023-11-19T01:16:53;4.80;;;4.30;;
12556;SDS011;6344;49.932;8.308;2023-11-19T01:19:19;4.00;;;3.63;;
12556;SDS011;6344;49.932;8.308;2023-11-19T01:21:47;3.97;;;3.67;;
12556;SDS011;6344;49.932;8.308;2023-11-19T01:24:15;4.00;;;3.70;;
12556;SDS011;6344;49.932;8.308;2023-11-19T01:26:43;4.50;;;4.10;;
12556;SDS011;6344;49.932;8.308;2023-11-19T01:29:10;3.33;;;3.13;;
12556;SDS011;6344;49.932;8.308;2023-11-19T01:31:38;3.90;;;3.57;;
12556;SDS011;6344;49.932;8.308;2023-11-19T01:34:05;3.80;;;3.60;;
12556;SDS011;6344;49.932;8.308;2023-11-19T01:36:31;4.37;;;3.50;;
12556;SDS011;6344;49.932;8.308;2023-11-19T01:38:58;3.67;;;3.37;;
12556;SDS011;6344;49.932;8.308;2023-11-19T01:41:26;3.60;;;3.40;;
12556;SDS011;6344;49.932;8.308;2023-11-19T01:43:53;4.30;;;4.00;;
12556;SDS011;6344;49.932;8.308;2023-11-19T01:46:20;5.00;;;4.50;;
12556;SDS011;6344;49.932;8.308;2023-11-19T01:48:46;4.87;;;4.50;;
12556;SDS011;6344;49.932;8.308;2023-11-19T01:51:13;5.50;;;5.10;;
12556;SDS011;6344;49.932;8.308;2023-11-19T01:53:41;5.03;;;4.63;;
12556;SDS011;6344;49.932;8.308;2023-11-19T01:56:09;5.30;;;4.80;;
12556;SDS011;6344;49.932;8.308;2023-11-19T01:58:42;5.40;;;5.00;;
12556;SDS011;6344;49.932;8.308;2023-11-19T02:01:12;6.22;;;5.40;;
12556;SDS011;6344;49.932;8.308;2023-11-19T02:03:39;6.70;;;6.13;;
12556;SDS011;6344;49.932;8.308;2023-11-19T02:06:06;6.00;;;5.60;;
12556;SDS011;6344;49.932;8.308;2023-11-19T02:08:35;5.03;;;4.63;;
12556;SDS011;6344;49.932;8.308;2023-11-19T02:11:01;5.40;;;4.90;;
12556;SDS011;6344;49.932;8.308;2023-11-19T02:13:28;5.07;;;4.57;;
12556;SDS011;6344;49.932;8.308;2023-11-19T02:15:56;4.33;;;3.73;;
12556;SDS011;6344;49.932;8.308;2023-11-19T02:18:25;3.40;;;3.20;;
12556;SDS011;6344;49.932;8.308;2023-11-19T02:20:53;3.90;;;3.60;;
12556;SDS011;6344;49.932;8.308;2023-11-19T02:23:20;4.00;;;3.60;;
12556;SDS011;6344;49.932;8.308;2023-11-19T02:25:47;4.80;;;4.10;;
12556;SDS011;6344;49.932;8.308;2023-11-19T02:28:29;4.47;;;4.13;;
12556;SDS011;6344;49.932;8.308;2023-11-19T02:30:56;4.20;;;3.90;;
12556;SDS011;6344;49.932;8.308;2023-11-19T02:33:22;3.90;;;3.60;;
12556;SDS011;6344;49.932;8.308;2023-11-19T02:35:50;4.00;;;3.57;;
12556;SDS011;6344;49.932;8.308;2023-11-19T02:38:17;5.77;;;3.30;;
12556;SDS011;6344;49.932;8.308;2023-11-19T02:40:43;4.20;;;3.90;;
12556;SDS011;6344;49.932;8.308;2023-11-19T02:43:10;4.10;;;3.80;;
12556;SDS011;6344;49.932;8.308;2023-11-19T02:45:38;5.43;;;4.93;;
12556;SDS011;6344;49.932;8.308;2023-11-19T02:48:05;6.50;;;5.90;;
12556;SDS011;6344;49.932;8.308;2023-11-19T02:50:32;6.83;;;6.33;;
12556;SDS011;6344;49.932;8.308;2023-11-19T02:52:59;8.30;;;7.50;;
12556;SDS011;6344;49.932;8.308;2023-11-19T02:55:26;9.53;;;8.43;;
12556;SDS011;6344;49.932;8.308;2023-11-19T02:57:55;9.00;;;7.40;;
12556;SDS011;6344;49.932;8.308;2023-11-19T03:00:24;8.20;;;7.40;;
12556;SDS011;6344;49.932;8.308;2023-11-19T03:02:59;8.13;;;7.43;;
12556;SDS011;6344;49.932;8.308;2023-11-19T03:05:34;8.83;;;7.80;;
12556;SDS011;6344;49.932;8.308;2023-11-19T03:08:01;8.90;;;7.80;;
12556;SDS011;6344;49.932;8.308;2023-11-19T03:10:28;8.47;;;7.50;;
12556;SDS011;6344;49.932;8.308;2023-11-19T03:12:55;8.80;;;8.00;;
12556;SDS011;6344;49.932;8.308;2023-11-19T03:15:22;9.70;;;8.43;;
12556;SDS011;6344;49.932;8.308;2023-11-19T03:17:48;8.50;;;7.70;;
12556;SDS011;6344;49.932;8.308;2023-11-19T03:20:16;8.10;;;7.40;;
12556;SDS011;6344;49.932;8.308;2023-11-19T03:22:43;8.13;;;7.33;;
12556;SDS011;6344;49.932;8.308;2023-11-19T03:25:10;8.03;;;7.23;;
12556;SDS011;6344;49.932;8.308;2023-11-19T03:27:37;7.67;;;6.90;;
12556;SDS011;6344;49.932;8.308;2023-11-19T03:30:05;9.43;;;8.50;;
12556;SDS011;6344;49.932;8.308;2023-11-19T03:32:32;8.10;;;7.40;;
12556;SDS011;6344;49.932;8.308;2023-11-19T03:35:00;9.20;;;7.73;;
12556;SDS011;6344;49.932;8.308;2023-11-19T03:37:30;9.03;;;8.13;;
12556;SDS011;6344;49.932;8.308;2023-11-19T03:39:57;9.33;;;8.33;;
12556;SDS011;6344;49.932;8.308;2023-11-19T03:42:24;10.30;;;9.30;;
12556;SDS011;6344;49.932;8.308;2023-11-19T03:44:51;9.93;;;9.03;;
12556;SDS011;6344;49.932;8.308;2023-11-19T03:47:18;10.40;;;9.30;;
12556;SDS011;6344;49.932;8.308;2023-11-19T03:49:46;11.17;;;10.13;;
12556;SDS011;6344;49.932;8.308;2023-11-19T03:52:14;11.23;;;10.10;;
12556;SDS011;6344;49.932;8.308;2023-11-19T03:54:42;11.60;;;10.40;;
12556;SDS011;6344;49.932;8.308;2023-11-19T03:57:09;11.23;;;10.10;;
12556;SDS011;6344;49.932;8.308;2023-11-19T03:59:37;11.57;;;10.20;;
12556;SDS011;6344;49.932;8.308;2023-11-19T04:02:03;11.97;;;10.67;;
12556;SDS011;6344;49.932;8.308;2023-11-19T04:04:31;11.53;;;10.33;;
12556;SDS011;6344;49.932;8.308;2023-11-19T04:06:59;11.20;;;10.07;;
12556;SDS011;6344;49.932;8.308;2023-11-19T04:09:27;15.83;;;11.60;;
12556;SDS011;6344;49.932;8.308;2023-11-19T04:11:56;11.90;;;10.70;;
12556;SDS011;6344;49.932;8.308;2023-11-19T04:14:22;14.57;;;11.63;;
12556;SDS011;6344;49.932;8.308;2023-11-19T04:16:49;12.77;;;10.60;;
12556;SDS011;6344;49.932;8.308;2023-11-19T04:19:16;18.33;;;14.18;;
12556;SDS011;6344;49.932;8.308;2023-11-19T04:21:42;14.00;;;12.23;;
12556;SDS011;6344;49.932;8.308;2023-11-19T04:24:09;14.30;;;12.00;;
12556;SDS011;6344;49.932;8.308;2023-11-19T04:26:39;14.77;;;12.17;;
12556;SDS011;6344;49.932;8.308;2023-11-19T04:29:09;14.60;;;11.20;;
12556;SDS011;6344;49.932;8.308;2023-11-19T04:31:36;11.30;;;10.10;;
12556;SDS011;6344;49.932;8.308;2023-11-19T04:34:03;13.80;;;10.73;;
12556;SDS011;6344;49.932;8.308;2023-11-19T04:36:29;13.17;;;11.63;;
12556;SDS011;6344;49.932;8.308;2023-11-19T04:38:56;14.83;;;11.10;;
12556;SDS011;6344;49.932;8.308;2023-11-19T04:41:24;13.63;;;11.73;;
12556;SDS011;6344;49.932;8.308;2023-11-19T04:43:52;15.23;;;11.90;;
12556;SDS011;6344;49.932;8.308;2023-11-19T04:46:20;13.20;;;10.50;;
12556;SDS011;6344;49.932;8.308;2023-11-19T04:48:48;11.13;;;9.93;;
12556;SDS011;6344;49.932;8.308;2023-11-19T04:51:15;14.17;;;11.30;;
12556;SDS011;6344;49.932;8.308;2023-11-19T04:53:42;15.63;;;11.80;;
12556;SDS011;6344;49.932;8.308;2023-11-19T04:56:08;11.37;;;10.17;;
12556;SDS011;6344;49.932;8.308;2023-11-19T04:58:36;15.00;;;11.63;;
12556;SDS011;6344;49.932;8.308;2023-11-19T05:01:03;15.77;;;11.03;;
12556;SDS011;6344;49.932;8.308;2023-11-19T05:03:32;18.38;;;14.00;;
12556;SDS011;6344;49.932;8.308;2023-11-19T05:05:58;15.27;;;11.60;;
12556;SDS011;6344;49.932;8.308;2023-11-19T05:08:25;30.40;;;13.70;;
12556;SDS011;6344;49.932;8.308;2023-11-19T05:10:52;25.17;;;13.03;;
12556;SDS011;6344;49.932;8.308;2023-11-19T05:13:18;18.83;;;11.43;;
12556;SDS011;6344;49.932;8.308;2023-11-19T05:15:45;14.17;;;10.80;;
12556;SDS011;6344;49.932;8.308;2023-11-19T05:18:12;16.17;;;10.70;;
12556;SDS011;6344;49.932;8.308;2023-11-19T05:20:40;16.73;;;10.90;;
12556;SDS011;6344;49.932;8.308;2023-11-19T05:23:06;12.77;;;10.73;;
12556;SDS011;6344;49.932;8.308;2023-11-19T05:25:33;12.87;;;10.23;;
12556;SDS011;6344;49.932;8.308;2023-11-19T05:28:00;14.03;;;10.10;;
12556;SDS011;6344;49.932;8.308;2023-11-19T05:30:26;11.13;;;9.30;;
12556;SDS011;6344;49.932;8.308;2023-11-19T05:32:53;13.90;;;9.53;;
12556;SDS011;6344;49.932;8.308;2023-11-19T05:35:20;13.10;;;9.23;;
12556;SDS011;6344;49.932;8.308;2023-11-19T05:37:48;11.57;;;9.80;;
12556;SDS011;6344;49.932;8.308;2023-11-19T05:40:15;11.87;;;9.40;;
12556;SDS011;6344;49.932;8.308;2023-11-19T05:42:42;11.93;;;9.57;;
12556;SDS011;6344;49.932;8.308;2023-11-19T05:45:11;10.03;;;8.17;;
12556;SDS011;6344;49.932;8.308;2023-11-19T05:47:38;17.63;;;10.30;;
12556;SDS011;6344;49.932;8.308;2023-11-19T05:50:05;14.40;;;8.90;;
12556;SDS011;6344;49.932;8.308;2023-11-19T05:52:32;11.10;;;8.77;;
12556;SDS011;6344;49.932;8.308;2023-11-19T05:55:00;11.77;;;8.47;;
12556;SDS011;6344;49.932;8.308;2023-11-19T05:57:29;13.43;;;9.63;;
12556;SDS011;6344;49.932;8.308;2023-11-19T05:59:56;9.30;;;7.87;;
12556;SDS011;6344;49.932;8.308;2023-11-19T06:02:24;10.60;;;9.17;;
12556;SDS011;6344;49.932;8.308;2023-11-19T06:04:52;13.90;;;9.73;;
12556;SDS011;6344;49.932;8.308;2023-11-19T06:07:18;14.33;;;10.17;;
12556;SDS011;6344;49.932;8.308;2023-11-19T06:09:45;14.80;;;9.60;;
12556;SDS011;6344;49.932;8.308;2023-11-19T06:12:13;15.37;;;10.00;;
12556;SDS011;6344;49.932;8.308;2023-11-19T06:14:40;12.27;;;9.07;;
12556;SDS011;6344;49.932;8.308;2023-11-19T06:17:07;12.50;;;8.97;;
12556;SDS011;6344;49.932;8.308;2023-11-19T06:19:36;12.57;;;8.87;;
12556;SDS011;6344;49.932;8.308;2023-11-19T06:22:03;10.50;;;7.77;;
12556;SDS011;6344;49.932;8.308;2023-11-19T06:24:29;9.07;;;7.20;;
12556;SDS011;6344;49.932;8.308;2023-11-19T06:26:56;9.80;;;7.10;;
12556;SDS011;6344;49.932;8.308;2023-11-19T06:29:24;12.67;;;7.60;;
12556;SDS011;6344;49.932;8.308;2023-11-19T06:31:51;7.87;;;7.00;;
12556;SDS011;6344;49.932;8.308;2023-11-19T06:34:17;13.43;;;7.93;;
12556;SDS011;6344;49.932;8.308;2023-11-19T06:36:44;8.87;;;7.27;;
12556;SDS011;6344;49.932;8.308;2023-11-19T06:39:11;13.97;;;8.90;;
12556;SDS011;6344;49.932;8.308;2023-11-19T06:41:38;9.03;;;7.93;;
12556;SDS011;6344;49.932;8.308;2023-11-19T06:44:04;4.13;;;3.83;;
12556;SDS011;6344;49.932;8.308;2023-11-19T06:46:32;5.30;;;4.90;;
12556;SDS011;6344;49.932;8.308;2023-11-19T06:48:59;7.43;;;5.70;;
12556;SDS011;6344;49.932;8.308;2023-11-19T06:51:26;4.70;;;4.30;;
12556;SDS011;6344;49.932;8.308;2023-11-19T06:53:52;3.80;;;3.50;;
12556;SDS011;6344;49.932;8.308;2023-11-19T06:56:20;4.03;;;3.63;;
12556;SDS011;6344;49.932;8.308;2023-11-19T06:58:47;3.87;;;3.57;;
12556;SDS011;6344;49.932;8.308;2023-11-19T07:01:14;3.40;;;3.10;;
12556;SDS011;6344;49.932;8.308;2023-11-19T07:03:42;4.50;;;4.13;;
12556;SDS011;6344;49.932;8.308;2023-11-19T07:06:09;4.20;;;3.90;;
12556;SDS011;6344;49.932;8.308;2023-11-19T07:08:38;3.93;;;3.63;;
12556;SDS011;6344;49.932;8.308;2023-11-19T07:11:04;6.10;;;4.63;;
12556;SDS011;6344;49.932;8.308;2023-11-19T07:13:31;3.10;;;2.90;;
12556;SDS011;6344;49.932;8.308;2023-11-19T07:15:58;4.43;;;4.07;;
12556;SDS011;6344;49.932;8.308;2023-11-19T07:18:24;5.33;;;4.83;;
12556;SDS011;6344;49.932;8.308;2023-11-19T07:20:52;4.73;;;4.23;;
12556;SDS011;6344;49.932;8.308;2023-11-19T07:23:19;4.60;;;4.30;;
12556;SDS011;6344;49.932;8.308;2023-11-19T07:25:46;4.30;;;4.00;;
12556;SDS011;6344;49.932;8.308;2023-11-19T07:28:15;4.87;;;4.37;;
12556;SDS011;6344;49.932;8.308;2023-11-19T07:30:42;5.30;;;4.30;;
12556;SDS011;6344;49.932;8.308;2023-11-19T07:33:09;6.27;;;5.70;;
12556;SDS011;6344;49.932;8.308;2023-11-19T07:35:36;7.90;;;6.33;;
12556;SDS011;6344;49.932;8.308;2023-11-19T07:38:04;6.63;;;6.03;;
12556;SDS011;6344;49.932;8.308;2023-11-19T07:40:30;10.43;;;9.47;;
12556;SDS011;6344;49.932;8.308;2023-11-19T07:42:57;11.87;;;10.73;;
12556;SDS011;6344;49.932;8.308;2023-11-19T07:45:24;14.17;;;12.67;;
12556;SDS011;6344;49.932;8.308;2023-11-19T07:47:52;12.13;;;10.83;;
12556;SDS011;6344;49.932;8.308;2023-11-19T07:50:19;13.50;;;10.50;;
12556;SDS011;6344;49.932;8.308;2023-11-19T07:52:46;10.33;;;9.33;;
12556;SDS011;6344;49.932;8.308;2023-11-19T07:55:14;6.63;;;5.93;;
12556;SDS011;6344;49.932;8.308;2023-11-19T07:57:41;5.82;;;5.32;;
12556;SDS011;6344;49.932;8.308;2023-11-19T08:00:08;5.57;;;5.17;;
12556;SDS011;6344;49.932;8.308;2023-11-19T08:02:37;4.97;;;4.53;;
12556;SDS011;6344;49.932;8.308;2023-11-19T08:05:04;5.23;;;4.83;;
12556;SDS011;6344;49.932;8.308;2023-11-19T08:07:31;5.87;;;4.93;;
12556;SDS011;6344;49.932;8.308;2023-11-19T08:09:58;5.20;;;4.80;;
12556;SDS011;6344;49.932;8.308;2023-11-19T08:12:26;4.80;;;4.40;;
12556;SDS011;6344;49.932;8.308;2023-11-19T08:14:53;4.57;;;4.17;;
12556;SDS011;6344;49.932;8.308;2023-11-19T08:17:19;4.93;;;4.53;;
12556;SDS011;6344;49.932;8.308;2023-11-19T08:19:48;8.50;;;7.77;;
12556;SDS011;6344;49.932;8.308;2023-11-19T08:22:14;10.30;;;9.40;;
12556;SDS011;6344;49.932;8.308;2023-11-19T08:24:41;11.57;;;10.63;;
12556;SDS011;6344;49.932;8.308;2023-11-19T08:27:08;11.07;;;9.90;;
12556;SDS011;6344;49.932;8.308;2023-11-19T08:29:36;9.80;;;9.10;;
12556;SDS011;6344;49.932;8.308;2023-11-19T08:32:03;9.03;;;8.30;;
12556;SDS011;6344;49.932;8.308;2023-11-19T08:34:31;6.40;;;5.90;;
12556;SDS011;6344;49.932;8.308;2023-11-19T08:36:58;5.37;;;4.50;;
12556;SDS011;6344;49.932;8.308;2023-11-19T08:39:25;6.07;;;3.40;;
12556;SDS011;6344;49.932;8.308;2023-11-19T08:41:52;7.60;;;3.27;;
12556;SDS011;6344;49.932;8.308;2023-11-19T08:44:20;5.20;;;2.00;;
12556;SDS011;6344;49.932;8.308;2023-11-19T08:46:48;3.67;;;2.53;;
12556;SDS011;6344;49.932;8.308;2023-11-19T08:49:15;3.83;;;3.00;;
12556;SDS011;6344;49.932;8.308;2023-11-19T08:51:42;5.40;;;2.70;;
12556;SDS011;6344;49.932;8.308;2023-11-19T08:54:09;2.20;;;2.07;;
12556;SDS011;6344;49.932;8.308;2023-11-19T08:56:37;3.20;;;2.40;;
12556;SDS011;6344;49.932;8.308;2023-11-19T08:59:04;7.40;;;5.00;;
12556;SDS011;6344;49.932;8.308;2023-11-19T09:01:31;4.67;;;4.03;;
12556;SDS011;6344;49.932;8.308;2023-11-19T09:03:59;7.53;;;3.43;;
12556;SDS011;6344;49.932;8.308;2023-11-19T09:06:26;6.90;;;4.07;;
12556;SDS011;6344;49.932;8.308;2023-11-19T09:08:52;3.53;;;2.30;;
12556;SDS011;6344;49.932;8.308;2023-11-19T09:11:23;4.10;;;1.97;;
12556;SDS011;6344;49.932;8.308;2023-11-19T09:13:50;21.07;;;2.40;;
12556;SDS011;6344;49.932;8.308;2023-11-19T09:16:16;8.90;;;2.20;;
12556;SDS011;6344;49.932;8.308;2023-11-19T09:18:43;3.70;;;2.10;;
12556;SDS011;6344;49.932;8.308;2023-11-19T09:21:11;3.00;;;2.47;;
12556;SDS011;6344;49.932;8.308;2023-11-19T09:23:38;2.93;;;2.37;;
12556;SDS011;6344;49.932;8.308;2023-11-19T09:26:08;7.03;;;2.80;;
12556;SDS011;6344;49.932;8.308;2023-11-19T09:28:35;5.03;;;2.70;;
12556;SDS011;6344;49.932;8.308;2023-11-19T09:31:02;3.33;;;2.40;;
12556;SDS011;6344;49.932;8.308;2023-11-19T09:33:29;3.37;;;2.20;;
12556;SDS011;6344;49.932;8.308;2023-11-19T09:35:56;4.77;;;3.80;;
12556;SDS011;6344;49.932;8.308;2023-11-19T09:38:24;3.20;;;2.10;;
12556;SDS011;6344;49.932;8.308;2023-11-19T09:40:51;3.17;;;2.17;;
12556;SDS011;6344;49.932;8.308;2023-11-19T09:43:17;2.97;;;2.57;;
12556;SDS011;6344;49.932;8.308;2023-11-19T09:45:46;6.83;;;2.50;;
12556;SDS011;6344;49.932;8.308;2023-11-19T09:48:16;2.33;;;1.60;;
12556;SDS011;6344;49.932;8.308;2023-11-19T09:50:43;6.47;;;2.80;;
12556;SDS011;6344;49.932;8.308;2023-11-19T09:53:11;2.57;;;2.37;;
12556;SDS011;6344;49.932;8.308;2023-11-19T09:55:39;4.13;;;2.10;;
12556;SDS011;6344;49.932;8.308;2023-11-19T09:58:06;3.03;;;2.40;;
12556;SDS011;6344;49.932;8.308;2023-11-19T10:00:34;7.23;;;2.37;;
12556;SDS011;6344;49.932;8.308;2023-11-19T10:03:00;3.80;;;2.47;;
12556;SDS011;6344;49.932;8.308;2023-11-19T10:05:30;11.13;;;3.53;;
12556;SDS011;6344;49.932;8.308;2023-11-19T10:07:57;4.10;;;2.10;;
12556;SDS011;6344;49.932;8.308;2023-11-19T10:10:24;2.13;;;1.97;;
12556;SDS011;6344;49.932;8.308;2023-11-19T10:12:52;4.77;;;2.50;;
12556;SDS011;6344;49.932;8.308;2023-11-19T10:15:20;4.03;;;2.57;;
12556;SDS011;6344;49.932;8.308;2023-11-19T10:17:47;3.77;;;2.23;;
12556;SDS011;6344;49.932;8.308;2023-11-19T10:20:14;5.40;;;2.33;;
12556;SDS011;6344;49.932;8.308;2023-11-19T10:22:41;5.90;;;2.53;;
12556;SDS011;6344;49.932;8.308;2023-11-19T10:25:15;4.17;;;2.30;;
12556;SDS011;6344;49.932;8.308;2023-11-19T10:27:48;2.33;;;1.93;;
12556;SDS011;6344;49.932;8.308;2023-11-19T10:30:18;5.00;;;2.87;;
12556;SDS011;6344;49.932;8.308;2023-11-19T10:32:47;5.40;;;2.60;;
12556;SDS011;6344;49.932;8.308;2023-11-19T10:35:29;5.83;;;2.07;;
12556;SDS011;6344;49.932;8.308;2023-11-19T10:37:58;6.53;;;2.50;;
12556;SDS011;6344;49.932;8.308;2023-11-19T10:40:31;6.73;;;2.33;;
12556;SDS011;6344;49.932;8.308;2023-11-19T10:43:04;5.00;;;2.20;;
12556;SDS011;6344;49.932;8.308;2023-11-19T10:45:34;5.50;;;2.93;;
12556;SDS011;6344;49.932;8.308;2023-11-19T10:48:00;3.27;;;2.07;;
12556;SDS011;6344;49.932;8.308;2023-11-19T10:50:31;4.87;;;1.90;;
12556;SDS011;6344;49.932;8.308;2023-11-19T10:52:58;7.43;;;2.70;;
12556;SDS011;6344;49.932;8.308;2023-11-19T10:55:26;4.90;;;2.73;;
12556;SDS011;6344;49.932;8.308;2023-11-19T10:57:56;2.93;;;2.20;;
12556;SDS011;6344;49.932;8.308;2023-11-19T11:00:25;8.43;;;2.50;;
12556;SDS011;6344;49.932;8.308;2023-11-19T11:02:56;4.03;;;2.20;;
12556;SDS011;6344;49.932;8.308;2023-11-19T11:05:26;4.80;;;1.97;;
12556;SDS011;6344;49.932;8.308;2023-11-19T11:07:55;4.17;;;2.20;;
12556;SDS011;6344;49.932;8.308;2023-11-19T11:10:22;8.23;;;3.00;;
12556;SDS011;6344;49.932;8.308;2023-11-19T11:12:52;3.93;;;1.87;;
12556;SDS011;6344;49.932;8.308;2023-11-19T11:15:24;8.10;;;3.07;;
12556;SDS011;6344;49.932;8.308;2023-11-19T11:17:56;6.63;;;2.73;;
12556;SDS011;6344;49.932;8.308;2023-11-19T11:20:26;3.20;;;1.97;;
12556;SDS011;6344;49.932;8.308;2023-11-19T11:22:57;3.97;;;2.50;;
12556;SDS011;6344;49.932;8.308;2023-11-19T11:25:38;3.50;;;2.03;;
12556;SDS011;6344;49.932;8.308;2023-11-19T11:28:17;3.30;;;2.37;;
12556;SDS011;6344;49.932;8.308;2023-11-19T11:30:55;3.20;;;2.00;;
12556;SDS011;6344;49.932;8.308;2023-11-19T11:33:58;6.27;;;2.87;;
12556;SDS011;6344;49.932;8.308;2023-11-19T11:49:13;5.67;;;2.63;;
12556;SDS011;6344;49.932;8.308;2023-11-19T11:51:57;3.73;;;2.23;;
12556;SDS011;6344;49.932;8.308;2023-11-19T11:54:28;7.43;;;2.70;;
12556;SDS011;6344;49.932;8.308;2023-11-19T11:57:00;3.20;;;1.97;;
12556;SDS011;6344;49.932;8.308;2023-11-19T11:59:31;3.50;;;2.63;;
12556;SDS011;6344;49.932;8.308;2023-11-19T12:02:03;4.10;;;1.90;;
12556;SDS011;6344;49.932;8.308;2023-11-19T12:04:31;2.47;;;1.80;;
12556;SDS011;6344;49.932;8.308;2023-11-19T12:07:04;3.27;;;2.07;;
12556;SDS011;6344;49.932;8.308;2023-11-19T12:09:31;4.27;;;1.93;;
12556;SDS011;6344;49.932;8.308;2023-11-19T12:12:06;4.87;;;2.00;;
12556;SDS011;6344;49.932;8.308;2023-11-19T12:17:36;2.50;;;1.77;;
12556;SDS011;6344;49.932;8.308;2023-11-19T12:20:10;4.03;;;1.60;;
12556;SDS011;6344;49.932;8.308;2023-11-19T12:22:37;3.43;;;1.80;;
12556;SDS011;6344;49.932;8.308;2023-11-19T12:25:05;4.40;;;2.20;;
12556;SDS011;6344;49.932;8.308;2023-11-19T12:27:33;4.17;;;2.03;;
12556;SDS011;6344;49.932;8.308;2023-11-19T12:30:00;6.90;;;2.00;;
12556;SDS011;6344;49.932;8.308;2023-11-19T12:32:36;6.50;;;2.23;;
12556;SDS011;6344;49.932;8.308;2023-11-19T12:35:04;3.90;;;1.80;;
12556;SDS011;6344;49.932;8.308;2023-11-19T12:37:33;5.57;;;2.17;;
12556;SDS011;6344;49.932;8.308;2023-11-19T12:40:00;3.30;;;1.90;;
12556;SDS011;6344;49.932;8.308;2023-11-19T12:42:36;5.05;;;1.90;;
12556;SDS011;6344;49.932;8.308;2023-11-19T12:45:04;3.70;;;1.80;;
12556;SDS011;6344;49.932;8.308;2023-11-19T12:47:31;2.33;;;1.67;;
12556;SDS011;6344;49.932;8.308;2023-11-19T12:49:57;5.87;;;2.60;;
12556;SDS011;6344;49.932;8.308;2023-11-19T12:52:24;4.90;;;1.93;;
12556;SDS011;6344;49.932;8.308;2023-11-19T12:54:53;5.43;;;2.30;;
12556;SDS011;6344;49.932;8.308;2023-11-19T12:57:19;5.30;;;3.43;;
12556;SDS011;6344;49.932;8.308;2023-11-19T12:59:55;6.53;;;2.23;;
12556;SDS011;6344;49.932;8.308;2023-11-19T13:02:22;2.97;;;1.90;;
12556;SDS011;6344;49.932;8.308;2023-11-19T13:04:49;3.47;;;1.93;;
12556;SDS011;6344;49.932;8.308;2023-11-19T13:07:20;7.20;;;2.73;;
12556;SDS011;6344;49.932;8.308;2023-11-19T13:09:47;4.30;;;2.30;;
12556;SDS011;6344;49.932;8.308;2023-11-19T13:12:15;5.70;;;2.80;;
12556;SDS011;6344;49.932;8.308;2023-11-19T13:14:42;8.40;;;2.90;;
12556;SDS011;6344;49.932;8.308;2023-11-19T13:17:12;3.87;;;2.67;;
12556;SDS011;6344;49.932;8.308;2023-11-19T13:19:39;3.30;;;1.80;;
12556;SDS011;6344;49.932;8.308;2023-11-19T13:22:06;4.83;;;2.87;;
12556;SDS011;6344;49.932;8.308;2023-11-19T13:24:33;5.47;;;2.00;;
12556;SDS011;6344;49.932;8.308;2023-11-19T13:27:00;4.83;;;2.60;;
12556;SDS011;6344;49.932;8.308;2023-11-19T13:29:28;4.07;;;2.10;;
12556;SDS011;6344;49.932;8.308;2023-11-19T13:31:55;4.60;;;1.93;;
12556;SDS011;6344;49.932;8.308;2023-11-19T13:34:21;5.37;;;2.77;;
12556;SDS011;6344;49.932;8.308;2023-11-19T13:36:48;3.90;;;2.53;;
12556;SDS011;6344;49.932;8.308;2023-11-19T13:39:15;3.10;;;1.73;;
12556;SDS011;6344;49.932;8.308;2023-11-19T13:41:47;4.43;;;1.73;;
12556;SDS011;6344;49.932;8.308;2023-11-19T13:44:15;6.47;;;1.87;;
12556;SDS011;6344;49.932;8.308;2023-11-19T13:46:45;3.67;;;1.90;;
12556;SDS011;6344;49.932;8.308;2023-11-19T13:49:12;5.83;;;2.30;;
12556;SDS011;6344;49.932;8.308;2023-11-19T13:51:39;7.80;;;3.00;;
12556;SDS011;6344;49.932;8.308;2023-11-19T13:54:05;2.83;;;2.10;;
12556;SDS011;6344;49.932;8.308;2023-11-19T13:56:32;3.93;;;2.20;;
12556;SDS011;6344;49.932;8.308;2023-11-19T13:58:58;6.90;;;2.53;;
12556;SDS011;6344;49.932;8.308;2023-11-19T14:01:25;5.77;;;2.70;;
12556;SDS011;6344;49.932;8.308;2023-11-19T14:03:54;3.37;;;2.70;;
12556;SDS011;6344;49.932;8.308;2023-11-19T14:06:20;6.60;;;2.10;;
12556;SDS011;6344;49.932;8.308;2023-11-19T14:08:48;8.07;;;3.03;;
12556;SDS011;6344;49.932;8.308;2023-11-19T14:11:16;5.77;;;3.07;;
12556;SDS011;6344;49.932;8.308;2023-11-19T14:13:42;6.53;;;2.57;;
12556;SDS011;6344;49.932;8.308;2023-11-19T14:16:10;9.33;;;3.60;;
12556;SDS011;6344;49.932;8.308;2023-11-19T14:18:37;5.23;;;2.67;;
12556;SDS011;6344;49.932;8.308;2023-11-19T14:21:05;8.03;;;2.53;;
12556;SDS011;6344;49.932;8.308;2023-11-19T14:23:32;7.60;;;2.20;;
12556;SDS011;6344;49.932;8.308;2023-11-19T14:25:59;5.67;;;2.80;;
12556;SDS011;6344;49.932;8.308;2023-11-19T14:28:26;6.30;;;2.30;;
12556;SDS011;6344;49.932;8.308;2023-11-19T14:30:52;2.83;;;2.00;;
12556;SDS011;6344;49.932;8.308;2023-11-19T14:33:22;7.73;;;2.20;;
12556;SDS011;6344;49.932;8.308;2023-11-19T14:35:48;8.83;;;2.20;;
12556;SDS011;6344;49.932;8.308;2023-11-19T14:38:16;3.50;;;2.00;;
12556;SDS011;6344;49.932;8.308;2023-11-19T14:40:44;10.10;;;2.77;;
12556;SDS011;6344;49.932;8.308;2023-11-19T14:43:10;4.33;;;2.20;;
12556;SDS011;6344;49.932;8.308;2023-11-19T14:45:37;7.53;;;2.23;;
12556;SDS011;6344;49.932;8.308;2023-11-19T14:48:05;4.97;;;2.37;;
12556;SDS011;6344;49.932;8.308;2023-11-19T14:50:31;4.87;;;2.40;;
12556;SDS011;6344;49.932;8.308;2023-11-19T14:52:58;7.60;;;2.33;;
12556;SDS011;6344;49.932;8.308;2023-11-19T14:55:26;3.77;;;2.03;;
12556;SDS011;6344;49.932;8.308;2023-11-19T14:57:53;5.53;;;2.40;;
12556;SDS011;6344;49.932;8.308;2023-11-19T15:00:19;4.30;;;1.90;;
12556;SDS011;6344;49.932;8.308;2023-11-19T15:02:46;5.67;;;2.00;;
12556;SDS011;6344;49.932;8.308;2023-11-19T15:05:13;2.87;;;1.67;;
12556;SDS011;6344;49.932;8.308;2023-11-19T15:07:39;6.47;;;2.57;;
12556;SDS011;6344;49.932;8.308;2023-11-19T15:10:06;5.27;;;2.67;;
12556;SDS011;6344;49.932;8.308;2023-11-19T15:12:36;4.50;;;1.97;;
12556;SDS011;6344;49.932;8.308;2023-11-19T15:15:06;10.13;;;2.30;;